Time;durP1;ratioP1;P1;durP2;ratioP2;P2;SDS_P1;SDS_P2;PMS_P1;PMS_P2;Temp;Humidity;BMP_temperature;BMP_pressure;BME280_temperature;BME280_humidity;BME280_pressure;Samples;Min_cycle;Max_cycle;Signal;HPM_P1;HPM_P2
2022/06/02 00:00:14;;;;;;;10.23;9.67;;;;;;;9.59;100.00;65165.22;5116788;28;20690;-71
2022/06/02 00:03:02;;;;;;;8.13;7.90;;;;;;;9.57;100.00;65165.59;5099350;28;20574;-71
2022/06/02 00:05:50;;;;;;;9.57;9.03;;;;;;;9.56;100.00;65161.88;5116559;28;20254;-71
2022/06/02 00:08:46;;;;;;;8.17;7.97;;;;;;;9.52;100.00;65158.03;5117203;28;20210;-71
2022/06/02 00:11:40;;;;;;;8.67;8.37;;;;;;;9.52;100.00;65160.63;5105249;28;20646;-71
2022/06/02 00:14:32;;;;;;;9.43;8.87;;;;;;;9.50;100.00;65158.41;5116544;28;20201;-71
2022/06/02 00:17:15;;;;;;;9.27;8.87;;;;;;;;;;5116827;28;20201;-72
2022/06/02 00:20:00;;;;;;;11.47;10.73;;;;;;;9.50;100.00;65158.41;5116639;28;20585;-71
2022/06/02 00:23:17;;;;;;;10.37;9.93;;;;;;;9.49;100.00;65162.47;5117494;28;20649;-72
2022/06/02 00:25:53;;;;;;;9.47;9.07;;;;;;;9.47;100.00;65155.06;5073741;28;20709;-72
2022/06/02 00:28:38;;;;;;;10.27;9.77;;;;;;;9.47;100.00;65157.09;5116573;28;20223;-71
2022/06/02 00:31:10;;;;;;;10.30;9.90;;;;;;;;;;5097929;28;20242;-72
2022/06/02 00:33:40;;;;;;;9.13;8.83;;;;;;;9.40;100.00;65144.72;5116709;28;20172;-72
2022/06/02 00:36:24;;;;;;;9.77;9.37;;;;;;;9.34;100.00;65138.63;5116076;28;20276;-72
2022/06/02 00:38:51;;;;;;;8.83;8.37;;;;;;;9.20;100.00;65132.94;5116352;28;20219;-72
2022/06/02 00:41:49;;;;;;;10.07;9.57;;;;;;;9.08;100.00;65113.00;5116134;28;20304;-72
2022/06/02 00:44:33;;;;;;;9.87;9.33;;;;;;;9.09;100.00;65116.72;5115932;28;20224;-72
2022/06/02 00:47:26;;;;;;;8.27;7.97;;;;;;;9.05;100.00;65109.69;5115918;28;20207;-72
2022/06/02 00:50:25;;;;;;;8.83;8.50;;;;;;;9.02;100.00;65108.97;5115787;28;20625;-72
2022/06/02 00:53:03;;;;;;;9.23;8.73;;;;;;;8.96;100.00;65099.72;5115690;28;20188;-72
2022/06/02 00:59:23;;;;;;;12.27;11.33;;;;;;;8.69;100.00;65069.84;5013280;28;20232;-72
2022/06/02 01:01:51;;;;;;;11.87;11.07;;;;;;;8.59;100.00;65058.81;5013146;28;20215;-73
2022/06/02 01:04:18;;;;;;;12.50;11.43;;;;;;;8.58;100.00;65055.09;5081426;28;20232;-72
2022/06/02 01:07:14;;;;;;;10.37;9.83;;;;;;;8.51;100.00;65053.09;5116038;28;20287;-72
2022/06/02 01:10:06;;;;;;;11.27;10.67;;;;;;;8.46;100.00;65063.06;5076970;28;20239;-71
2022/06/02 01:12:54;;;;;;;11.13;10.57;;;;;;;8.43;100.00;65042.22;5115688;28;20226;-71
2022/06/02 01:15:34;;;;;;;11.10;10.50;;;;;;;;;;5115894;28;20213;-71
2022/06/02 01:18:22;;;;;;;10.87;10.17;;;;;;;8.43;100.00;65044.22;5114750;28;20683;-71
2022/06/02 01:21:09;;;;;;;9.80;9.30;;;;;;;8.42;100.00;65046.25;5115203;28;20247;-71
2022/06/02 01:24:02;;;;;;;10.87;10.00;;;;;;;8.41;100.00;65045.16;5115743;28;20207;-71
2022/06/02 01:26:37;;;;;;;9.73;9.43;;;;;;;8.37;100.00;65035.03;5115683;28;20174;-71
2022/06/02 01:29:35;;;;;;;10.13;9.57;;;;;;;8.39;100.00;65037.78;5115068;28;20241;-71
2022/06/02 01:32:17;;;;;;;9.93;9.53;;;;;;;8.38;100.00;65041.84;5115295;28;20205;-71
2022/06/02 01:35:10;;;;;;;9.83;9.50;;;;;;;8.33;100.00;65020.22;5115216;28;20203;-71
2022/06/02 01:37:48;;;;;;;8.67;8.27;;;;;;;;;;5114867;28;20222;-71
2022/06/02 01:40:20;;;;;;;9.40;9.00;;;;;;;8.24;100.00;65023.75;5114981;28;20613;-71
2022/06/02 01:42:54;;;;;;;9.90;9.20;;;;;;;8.23;100.00;65022.66;5115075;28;20216;-71
2022/06/02 01:45:30;;;;;;;10.53;10.03;;;;;;;;;;5115280;28;20197;-71
2022/06/02 01:48:08;;;;;;;10.47;9.93;;;;;;;;;;5115263;28;20266;-71
2022/06/02 01:50:41;;;;;;;10.97;10.30;;;;;;;8.08;100.00;65003.47;5114405;28;20693;-72
2022/06/02 01:53:23;;;;;;;9.80;9.33;;;;;;;8.07;100.00;65010.13;5114579;28;20302;-72
2022/06/02 01:56:17;;;;;;;10.90;10.27;;;;;;;8.09;100.00;65002.00;5114489;28;20690;-72
2022/06/02 01:59:03;;;;;;;11.07;10.40;;;;;;;8.11;100.00;65011.97;5114811;28;20198;-72
2022/06/02 02:01:48;;;;;;;11.27;10.50;;;;;;;;;;5114420;28;20712;-72
2022/06/02 02:04:27;;;;;;;10.40;9.80;;;;;;;;;;5114670;28;20180;-72
2022/06/02 02:06:59;;;;;;;11.13;10.43;;;;;;;;;;5114678;28;20190;-72
2022/06/02 02:09:41;;;;;;;11.43;10.73;;;;;;;8.13;100.00;65009.53;5114598;28;20209;-71
2022/06/02 02:12:32;;;;;;;11.43;10.60;;;;;;;8.12;100.00;65011.03;5114299;28;20263;-71
2022/06/02 02:15:15;;;;;;;11.40;10.70;;;;;;;8.11;100.00;65022.84;5114779;28;20207;-71
2022/06/02 02:18:00;;;;;;;10.83;10.23;;;;;;;8.11;100.00;65015.09;5114479;28;20202;-72
2022/06/02 02:20:53;;;;;;;11.97;11.07;;;;;;;8.07;100.00;65007.53;5114026;28;20238;-72
2022/06/02 02:23:32;;;;;;;10.57;10.07;;;;;;;8.04;100.00;65004.78;5114593;28;20234;-72
2022/06/02 02:26:17;;;;;;;11.60;10.87;;;;;;;8.06;100.00;65001.25;5114321;28;20208;-72
2022/06/02 02:29:13;;;;;;;12.53;11.37;;;;;;;8.03;100.00;65010.88;5113772;28;20201;-72
2022/06/02 02:31:58;;;;;;;12.33;11.43;;;;;;;8.00;100.00;64995.75;5113915;28;20246;-72
2022/06/02 02:34:55;;;;;;;11.17;10.53;;;;;;;7.88;100.00;64992.25;5095656;28;20197;-72
2022/06/02 02:37:37;;;;;;;11.57;10.87;;;;;;;7.83;100.00;64974.34;5113900;28;20223;-72
2022/06/02 02:40:30;;;;;;;12.30;11.43;;;;;;;7.80;100.00;64971.03;5113802;28;20578;-71
2022/06/02 02:43:04;;;;;;;12.27;11.47;;;;;;;7.75;100.00;64968.09;5113801;28;20212;-72
2022/06/02 02:45:46;;;;;;;11.40;10.90;;;;;;;7.73;100.00;64963.31;5114338;28;20642;-72
2022/06/02 02:48:23;;;;;;;14.27;12.90;;;;;;;7.76;100.00;64973.81;5114069;28;20185;-72
2022/06/02 02:51:07;;;;;;;11.77;11.10;;;;;;;7.72;100.00;64967.94;5113627;28;20721;-72
2022/06/02 02:53:42;;;;;;;14.13;12.70;;;;;;;7.80;100.00;64976.22;5113732;28;20177;-72
2022/06/02 02:56:32;;;;;;;11.90;11.10;;;;;;;7.75;100.00;64988.22;5113985;28;20226;-72
2022/06/02 02:59:03;;;;;;;12.50;11.67;;;;;;;;;;5113939;28;20175;-72
2022/06/02 03:01:58;;;;;;;12.60;11.40;;;;;;;7.69;100.00;64958.88;5113519;28;20719;-72
2022/06/02 03:04:38;;;;;;;11.77;10.97;;;;;;;7.67;100.00;64967.56;5077319;28;20205;-72
2022/06/02 03:07:04;;;;;;;11.20;10.23;;;;;;;7.66;100.00;64956.13;5113630;28;20201;-72
2022/06/02 03:09:41;;;;;;;10.83;10.17;;;;;;;7.65;100.00;64960.19;5113757;28;20205;-72
2022/06/02 03:12:19;;;;;;;11.80;11.17;;;;;;;7.61;100.00;64968.13;5114373;28;20202;-72
2022/06/02 03:15:00;;;;;;;11.33;10.73;;;;;;;7.59;100.00;64958.72;5114095;28;20193;-72
2022/06/02 03:18:04;;;;;;;12.17;11.43;;;;;;;7.53;100.00;64941.19;5113500;28;20586;-72
2022/06/02 03:21:06;;;;;;;11.93;11.13;;;;;;;7.50;100.00;64948.19;5113636;28;20577;-72
2022/06/02 03:23:51;;;;;;;11.67;10.97;;;;;;;7.37;100.00;64932.38;5113455;28;20211;-72
2022/06/02 03:26:35;;;;;;;12.17;11.33;;;;;;;7.30;100.00;64922.06;5113700;28;20588;-72
2022/06/02 03:29:16;;;;;;;13.07;12.17;;;;;;;7.25;100.00;64918.56;5113396;28;20197;-72
2022/06/02 03:31:59;;;;;;;12.47;11.67;;;;;;;7.24;100.00;64923.16;5113286;28;20233;-72
2022/06/02 03:34:38;;;;;;;12.30;11.50;;;;;;;7.24;100.00;64914.88;5113922;28;20197;-72
2022/06/02 03:37:23;;;;;;;12.97;11.90;;;;;;;7.02;100.00;64894.25;5113596;28;20181;-72
2022/06/02 03:40:22;;;;;;;10.67;9.97;;;;;;;6.89;100.00;64875.28;5113655;28;20228;-72
2022/06/02 03:43:07;;;;;;;9.70;9.30;;;;;;;6.83;100.00;64873.25;5117243;28;20224;-72
2022/06/02 03:45:50;;;;;;;11.40;10.70;;;;;;;6.84;100.00;64880.06;5117155;28;20180;-72
2022/06/02 03:48:40;;;;;;;12.30;11.47;;;;;;;6.85;100.00;64868.28;5117282;28;20264;-72
2022/06/02 03:51:25;;;;;;;11.70;10.70;;;;;;;6.90;100.00;64881.00;5116995;28;20252;-72
2022/06/02 03:54:08;;;;;;;13.17;11.83;;;;;;;6.95;100.00;64881.38;5117212;28;20184;-72
2022/06/02 03:56:49;;;;;;;12.10;11.17;;;;;;;6.98;100.00;64889.28;5117252;28;20208;-72
2022/06/02 03:59:53;;;;;;;11.90;11.00;;;;;;;7.05;100.00;64891.84;5117481;28;20251;-72
2022/06/02 04:02:28;;;;;;;12.93;12.03;;;;;;;7.06;100.00;64892.94;5116981;28;20240;-73
2022/06/02 04:05:08;;;;;;;12.67;11.77;;;;;;;7.08;100.00;64897.75;5116732;28;20180;-73
2022/06/02 04:07:37;;;;;;;13.53;12.53;;;;;;;7.11;100.00;64895.91;5117003;28;20230;-73
2022/06/02 04:10:06;;;;;;;14.67;13.50;;;;;;;7.02;100.00;64891.13;5117069;28;20616;-72
2022/06/02 04:15:36;;;;;;;14.13;13.10;;;;;;;7.22;100.00;64915.81;5116790;28;20204;-72
2022/06/02 04:18:13;;;;;;;13.80;12.87;;;;;;;7.14;100.00;64910.09;5116794;28;20205;-72
2022/06/02 04:20:43;;;;;;;13.83;12.97;;;;;;;7.15;100.00;64908.06;5116477;28;20738;-72
2022/06/02 04:23:37;;;;;;;16.17;14.53;;;;;;;7.12;100.00;64900.13;5116541;28;20247;-72
2022/06/02 04:26:29;;;;;;;14.30;13.07;;;;;;;7.20;100.00;64916.16;5116647;28;20646;-72
2022/06/02 04:29:14;;;;;;;14.10;12.83;;;;;;;7.16;100.00;64909.72;5116545;28;20582;-73
2022/06/02 04:32:04;;;;;;;15.93;14.63;;;;;;;7.19;100.00;64904.75;5116161;28;20224;-72
2022/06/02 04:34:43;;;;;;;14.53;13.40;;;;;;;7.40;100.00;64948.59;5116176;28;20580;-72
2022/06/02 04:37:40;;;;;;;15.23;14.03;;;;;;;7.42;100.00;64940.47;5116342;28;20646;-72
2022/06/02 04:40:18;;;;;;;16.27;14.87;;;;;;;7.56;100.00;64947.09;5115949;28;20239;-72
2022/06/02 04:43:09;;;;;;;16.37;14.73;;;;;;;7.61;100.00;64957.78;5116448;28;20225;-72
2022/06/02 04:45:57;;;;;;;15.70;14.20;;;;;;;7.72;100.00;64975.13;5116269;28;20170;-73
2022/06/02 04:48:43;;;;;;;17.60;15.90;;;;;;;7.85;100.00;64986.91;5116205;28;20256;-73
2022/06/02 04:51:34;;;;;;;17.27;15.60;;;;;;;7.99;100.00;64994.06;5115843;28;20256;-72
2022/06/02 04:54:19;;;;;;;19.20;16.23;;;;;;;8.15;100.00;65004.03;5116014;28;20217;-72
2022/06/02 04:56:45;;;;;;;17.67;15.80;;;;;;;8.20;100.00;65016.72;5115735;28;20173;-72
2022/06/02 04:59:20;;;;;;;19.53;15.93;;;;;;;8.27;100.00;65022.44;5115597;28;20177;-72
2022/06/02 05:02:14;;;;;;;19.07;17.20;;;;;;;8.26;100.00;65026.50;5115779;28;20232;-72
2022/06/02 05:05:02;;;;;;;21.30;16.47;;;;;;;8.36;100.00;65033.91;5115523;28;20205;-73
2022/06/02 05:07:28;;;;;;;18.60;16.60;;;;;;;;;;5116063;28;20581;-72
2022/06/02 05:10:07;;;;;;;22.20;16.70;;;;;;;8.52;100.00;65049.56;5115410;28;20288;-73
2022/06/02 05:12:58;;;;;;;18.43;15.77;;;;;;;8.60;100.00;65067.66;5115879;28;20193;-73
2022/06/02 05:15:51;;;;;;;18.63;16.73;;;;;;;8.69;100.00;65069.84;5115659;28;20186;-73
2022/06/02 05:18:48;;;;;;;18.17;16.53;;;;;;;8.82;100.00;65084.25;5115811;28;20639;-73
2022/06/02 05:21:27;;;;;;;17.97;16.10;;;;;;;;;;5114744;28;20238;-72
2022/06/02 05:24:21;;;;;;;23.27;17.90;;;;;;;9.02;100.00;65105.81;5105934;28;20193;-72
2022/06/02 05:27:15;;;;;;;18.17;16.30;;;;;;;9.15;100.00;65117.63;5107671;28;20611;-72
2022/06/02 05:29:57;;;;;;;19.77;17.50;;;;;;;9.22;100.00;65130.56;5107717;28;20220;-71
2022/06/02 05:32:35;;;;;;;22.00;16.77;;;;;;;9.33;100.00;65140.13;5105364;28;20278;-72
2022/06/02 05:35:08;;;;;;;19.73;17.17;;;;;;;;;;5112173;28;20191;-72
2022/06/02 05:38:00;;;;;;;17.57;15.30;;;;;;;9.47;100.00;65152.47;5111015;28;20279;-72
2022/06/02 05:40:33;;;;;;;17.87;16.10;;;;;;;9.56;100.00;65154.66;5113079;28;20619;-72
2022/06/02 05:43:08;;;;;;;17.40;15.73;;;;;;;9.68;100.00;65177.22;5111259;28;20238;-73
2022/06/02 05:45:38;;;;;;;20.20;17.97;;;;;;;;;;5108899;28;20180;-72
2022/06/02 05:48:32;;;;;;;17.60;15.93;;;;;;;9.80;100.00;65191.06;5110161;28;20261;-72
2022/06/02 05:51:35;;;;;;;17.03;15.43;;;;;;;9.89;100.00;65200.47;5105742;28;20229;-72
2022/06/02 05:54:23;;;;;;;17.03;15.43;;;;;;;9.98;100.00;65209.88;5110249;28;20231;-72
2022/06/02 05:57:22;;;;;;;20.87;16.47;;;;;;;;;;5114788;28;20597;-72
2022/06/02 06:00:16;;;;;;;17.13;15.43;;;;;;;10.20;100.00;65231.66;5044923;28;20749;-72
2022/06/02 06:03:18;;;;;;;19.10;15.50;;;;;;;10.31;100.00;65246.47;5094554;28;20193;-72
2022/06/02 06:06:01;;;;;;;17.07;15.37;;;;;;;10.45;100.00;65261.44;5094302;28;20192;-72
2022/06/02 06:08:41;;;;;;;18.77;16.93;;;;;;;10.55;100.00;65285.47;5094009;28;20205;-72
2022/06/02 06:11:39;;;;;;;18.07;16.37;;;;;;;10.68;100.00;65279.13;5109928;28;20252;-71
2022/06/02 06:14:19;;;;;;;19.27;16.17;;;;;;;10.81;100.00;65293.00;5112651;28;20239;-72
2022/06/02 06:16:56;;;;;;;16.30;14.70;;;;;;;10.91;100.00;65309.25;5113306;28;20189;-72
2022/06/02 06:19:26;;;;;;;17.83;15.73;;;;;;;11.03;100.00;65316.81;5111628;28;21529;-72
2022/06/02 06:22:01;;;;;;;17.80;16.10;;;;;;;;;;5114015;28;20205;-72
2022/06/02 06:24:52;;;;;;;16.23;14.90;;;;;;;11.35;100.00;65361.56;5114598;28;20269;-72
2022/06/02 06:27:38;;;;;;;16.00;14.57;;;;;;;11.48;100.00;65373.94;5114645;28;20525;-72
2022/06/02 06:30:20;;;;;;;15.67;14.40;;;;;;;11.59;100.00;65383.00;5114449;28;20573;-72
2022/06/02 06:33:06;;;;;;;15.40;14.13;;;;;;;11.67;100.00;65391.88;5114539;28;20672;-72
2022/06/02 06:35:42;;;;;;;15.87;14.47;;;;;;;11.86;100.00;65412.44;5112640;28;20221;-72
2022/06/02 06:38:11;;;;;;;16.63;14.90;;;;;;;12.01;100.00;65428.53;5109545;28;20192;-72
2022/06/02 06:40:41;;;;;;;16.10;14.07;;;;;;;;;;5103775;28;20300;-71
2022/06/02 06:43:32;;;;;;;14.93;13.57;;;;;;;12.23;100.00;65452.38;5111987;28;20217;-73
2022/06/02 06:46:15;;;;;;;13.40;12.30;;;;;;;12.32;100.00;65462.38;5114051;28;20169;-73
2022/06/02 06:48:49;;;;;;;13.50;12.43;;;;;;;12.42;100.00;65473.47;5113973;28;20177;-73
2022/06/02 06:51:34;;;;;;;13.43;12.20;;;;;;;;;;5113666;28;20708;-72
2022/06/02 06:54:15;;;;;;;13.23;12.23;;;;;;;;;;5113949;28;20216;-72
2022/06/02 06:56:44;;;;;;;14.33;13.23;;;;;;;;;;5113968;28;20611;-72
2022/06/02 06:59:18;;;;;;;14.20;13.13;;;;;;;;;;5114151;28;20213;-73
2022/06/02 07:01:56;;;;;;;12.43;11.47;;;;;;;;;;5113462;28;20691;-73
2022/06/02 07:04:38;;;;;;;11.50;10.63;;;;;;;13.30;100.00;65569.00;5113860;28;20260;-73
2022/06/02 07:07:27;;;;;;;11.37;10.67;;;;;;;;;;5105515;28;20184;-73
2022/06/02 07:10:01;;;;;;;11.43;10.73;;;;;;;;;;5098314;28;20375;-73
2022/06/02 07:12:50;;;;;;;10.33;9.83;;;;;;;13.66;97.86;65611.63;5113530;28;20192;-73
2022/06/02 07:15:20;;;;;;;10.37;9.73;;;;;;;;;;5112910;28;20258;-72
2022/06/02 07:18:11;;;;;;;11.90;10.73;;;;;;;14.00;93.87;65648.88;5115422;28;20245;-72
2022/06/02 07:20:48;;;;;;;10.73;10.23;;;;;;;13.92;93.97;65639.94;5112827;28;20715;-72
2022/06/02 07:23:21;;;;;;;10.17;9.57;;;;;;;;;;5111601;28;20231;-73
2022/06/02 07:26:03;;;;;;;8.80;8.60;;;;;;;;;;5115735;28;20216;-73
2022/06/02 07:28:39;;;;;;;7.77;7.67;;;;;;;13.82;93.29;65626.22;5114373;28;20237;-72
2022/06/02 07:31:31;;;;;;;8.87;8.67;;;;;;;13.85;92.58;65632.16;5110517;28;20216;-73
2022/06/02 07:34:23;;;;;;;10.30;9.57;;;;;;;13.63;93.21;65605.09;5095372;28;20194;-70
2022/06/02 07:37:11;;;;;;;9.50;8.67;;;;;;;13.68;92.55;65611.22;5108490;28;20221;-72
2022/06/02 07:39:54;;;;;;;8.80;8.60;;;;;;;13.75;92.56;65613.25;5116155;28;20215;-72
2022/06/02 07:42:43;;;;;;;10.20;9.80;;;;;;;13.82;92.75;65625.69;5116830;28;20659;-72
2022/06/02 07:45:31;;;;;;;10.10;9.70;;;;;;;13.94;92.41;65639.59;5116552;28;20208;-73
2022/06/02 07:48:03;;;;;;;11.90;11.03;;;;;;;;;;5115818;28;20192;-73
2022/06/02 07:50:31;;;;;;;10.00;9.60;;;;;;;;;;5116880;28;20232;-72
2022/06/02 07:52:57;;;;;;;10.60;10.13;;;;;;;;;;5117293;28;20594;-73
2022/06/02 07:55:59;;;;;;;13.40;12.17;;;;;;;;;;5116960;28;20216;-73
2022/06/02 07:58:41;;;;;;;12.93;11.97;;;;;;;14.08;89.20;65654.03;5015117;28;20598;-73
2022/06/02 08:01:17;;;;;;;11.13;10.63;;;;;;;14.05;89.89;65646.03;5107926;28;20636;-73
2022/06/02 08:04:11;;;;;;;13.17;12.43;;;;;;;14.03;89.52;65649.56;5116913;28;20203;-73
2022/06/02 08:06:37;;;;;;;12.17;10.97;;;;;;;;;;5116965;28;20534;-73
2022/06/02 08:09:54;;;;;;;9.90;9.37;;;;;;;13.95;89.03;65632.84;5117215;28;20627;-73
2022/06/02 08:12:29;;;;;;;8.63;8.33;;;;;;;13.94;89.51;65634.38;5103409;28;20235;-72
2022/06/02 08:15:16;;;;;;;9.33;9.00;;;;;;;13.87;87.36;65633.84;5116873;28;20610;-73
2022/06/02 08:17:48;;;;;;;9.33;8.93;;;;;;;;;;5098255;28;20216;-73
2022/06/02 08:20:24;;;;;;;8.90;8.70;;;;;;;13.83;87.45;65621.56;5116662;28;20627;-72
2022/06/02 08:23:16;;;;;;;11.13;10.43;;;;;;;;;;5116547;28;20198;-72
2022/06/02 08:25:49;;;;;;;11.73;10.93;;;;;;;;;;5116672;28;20169;-73
2022/06/02 08:28:36;;;;;;;11.47;10.67;;;;;;;14.01;89.67;65582.13;5116049;28;20207;-73
2022/06/02 08:31:14;;;;;;;11.37;10.47;;;;;;;;;;5116225;28;20264;-72
2022/06/02 08:33:51;;;;;;;11.07;10.37;;;;;;;13.99;88.09;65645.13;5116458;28;20628;-73
2022/06/02 08:36:34;;;;;;;9.90;9.20;;;;;;;14.12;89.15;65661.63;5116399;28;20631;-73
2022/06/02 08:39:06;;;;;;;12.60;11.60;;;;;;;;;;5116371;28;20205;-73
2022/06/02 08:41:51;;;;;;;10.63;9.90;;;;;;;;;;5116518;28;20679;-73
2022/06/02 08:44:30;;;;;;;7.90;7.60;;;;;;;;;;5115954;28;20225;-72
2022/06/02 08:47:15;;;;;;;6.40;6.30;;;;;;;;;;5116238;28;20201;-72
2022/06/02 08:50:10;;;;;;;8.37;8.03;;;;;;;14.24;86.66;65666.59;5115840;28;20246;-72
2022/06/02 08:52:58;;;;;;;8.83;8.53;;;;;;;14.27;87.29;65675.69;5115708;28;20651;-72
2022/06/02 08:55:41;;;;;;;9.20;8.87;;;;;;;14.34;86.38;65685.53;5116301;28;20575;-73
2022/06/02 08:58:46;;;;;;;7.90;7.60;;;;;;;;;;5116008;28;20537;-73
2022/06/02 09:01:32;;;;;;;6.90;6.70;;;;;;;;;;5115803;28;20209;-73
2022/06/02 09:04:37;;;;;;;6.83;6.60;;;;;;;14.45;85.63;65689.41;5115480;28;20205;-73
2022/06/02 09:07:31;;;;;;;8.70;8.50;;;;;;;14.58;84.02;65712.28;5116087;28;20201;-73
2022/06/02 09:10:43;;;;;;;8.13;7.83;;;;;;;;;;5115675;28;20205;-73
2022/06/02 09:13:27;;;;;;;7.17;7.07;;;;;;;;;;5043542;28;20239;-73
2022/06/02 09:16:17;;;;;;;7.97;7.77;;;;;;;14.66;80.25;65712.22;5115397;28;20230;-74
2022/06/02 09:18:50;;;;;;;8.57;8.37;;;;;;;14.77;80.12;65729.66;5107366;28;20254;-73
2022/06/02 09:22:03;;;;;;;8.47;8.27;;;;;;;14.83;78.68;65736.34;5115228;28;20220;-73
2022/06/02 09:24:48;;;;;;;8.40;8.30;;;;;;;;;;5115395;28;20197;-73
2022/06/02 09:27:26;;;;;;;8.40;8.17;;;;;;;;;;5097627;28;20177;-73
2022/06/02 09:29:59;;;;;;;8.90;8.70;;;;;;;15.02;75.38;65764.78;5115538;28;20623;-72
2022/06/02 09:32:50;;;;;;;6.97;6.87;;;;;;;15.20;76.25;65771.19;5115638;28;20212;-73
2022/06/02 09:35:19;;;;;;;8.67;8.47;;;;;;;;;;5114991;28;20177;-72
2022/06/02 09:38:04;;;;;;;8.17;7.97;;;;;;;15.46;76.29;65805.34;5115174;28;20185;-73
2022/06/02 09:40:40;;;;;;;7.57;7.30;;;;;;;;;;5097140;28;20217;-73
2022/06/02 09:43:25;;;;;;;10.10;9.70;;;;;;;;;;5115068;28;20196;-73
2022/06/02 09:46:12;;;;;;;8.13;7.77;;;;;;;;;;5115311;28;20189;-73
2022/06/02 09:48:58;;;;;;;11.43;10.60;;;;;;;;;;5096461;28;20191;-73
2022/06/02 09:51:43;;;;;;;9.20;8.90;;;;;;;16.20;74.13;65886.66;5114486;28;20633;-73
2022/06/02 09:54:18;;;;;;;9.40;9.03;;;;;;;;;;5114944;28;20188;-73
2022/06/02 09:56:54;;;;;;;11.17;10.47;;;;;;;;;;5114602;28;20185;-73
2022/06/02 09:59:40;;;;;;;10.60;10.03;;;;;;;16.02;73.15;65858.75;5114832;28;20169;-73
2022/06/02 10:02:21;;;;;;;9.30;9.10;;;;;;;16.06;72.99;65863.19;5114760;28;20227;-73
2022/06/02 10:05:09;;;;;;;8.30;8.00;;;;;;;;;;5114723;28;20169;-73
2022/06/02 10:08:05;;;;;;;9.53;9.17;;;;;;;15.99;74.37;65855.41;5114523;28;20200;-74
2022/06/02 10:10:58;;;;;;;9.93;9.63;;;;;;;15.98;71.47;65856.91;5113795;28;20583;-73
2022/06/02 10:13:58;;;;;;;9.53;9.07;;;;;;;15.98;73.44;65864.78;5114760;28;20162;-73
2022/06/02 10:16:34;;;;;;;9.07;8.77;;;;;;;15.99;74.08;65857.47;5114457;28;20632;-73
2022/06/02 10:19:20;;;;;;;9.27;8.97;;;;;;;;;;5114439;28;20169;-73
2022/06/02 10:22:21;;;;;;;9.77;9.07;;;;;;;15.96;71.72;65863.09;5114061;28;20201;-73
2022/06/02 10:24:50;;;;;;;9.97;9.67;;;;;;;15.96;72.11;65859.94;5114304;28;20646;-73
2022/06/02 10:27:35;;;;;;;9.10;8.83;;;;;;;;;;5114306;28;20181;-73
2022/06/02 10:30:41;;;;;;;8.80;8.60;;;;;;;15.76;72.24;65829.81;5114058;28;20615;-73
2022/06/02 10:33:45;;;;;;;7.87;7.73;;;;;;;15.66;73.24;65830.25;5114657;28;20165;-73
2022/06/02 10:36:29;;;;;;;6.87;6.67;;;;;;;;;;5114161;28;20189;-72
2022/06/02 10:39:37;;;;;;;6.70;6.60;;;;;;;15.74;73.95;65838.06;5114209;28;20268;-73
2022/06/02 10:42:28;;;;;;;6.73;6.53;;;;;;;;;;5114103;28;20242;-73
2022/06/02 10:45:04;;;;;;;6.90;6.80;;;;;;;;;;5114113;28;20684;-73
2022/06/02 10:47:59;;;;;;;8.27;8.03;;;;;;;16.13;70.17;65871.00;5114299;28;20273;-73
2022/06/02 10:50:25;;;;;;;7.53;7.33;;;;;;;;;;5113765;28;20237;-72
2022/06/02 10:53:00;;;;;;;7.53;7.30;;;;;;;16.07;69.44;65872.16;5113372;28;20211;-72
2022/06/02 10:56:04;;;;;;;8.13;7.93;;;;;;;16.15;70.21;65873.25;5113766;28;20180;-73
2022/06/02 10:58:49;;;;;;;7.70;7.60;;;;;;;;;;5114411;28;20216;-73
2022/06/02 11:01:53;;;;;;;7.73;7.53;;;;;;;16.32;69.16;65901.53;5113644;28;20204;-73
2022/06/02 11:04:39;;;;;;;6.67;6.57;;;;;;;16.40;69.26;65842.31;5113594;28;20225;-73
2022/06/02 11:07:22;;;;;;;6.97;6.77;;;;;;;16.39;67.69;65909.34;5114145;28;20185;-73
2022/06/02 11:10:10;;;;;;;6.60;6.40;;;;;;;16.36;68.39;65898.13;5114024;28;20245;-73
2022/06/02 11:12:52;;;;;;;6.80;6.43;;;;;;;16.38;68.21;65897.75;5113812;28;20181;-73
2022/06/02 11:15:22;;;;;;;6.83;6.57;;;;;;;16.46;68.49;65917.13;5113832;28;20572;-73
2022/06/02 11:17:48;;;;;;;8.03;7.47;;;;;;;;;;5113451;28;20238;-73
2022/06/02 11:20:36;;;;;;;6.70;6.60;;;;;;;16.74;66.45;65953.59;5113394;28;20209;-72
2022/06/02 11:23:05;;;;;;;8.10;7.57;;;;;;;;;;5113861;28;20197;-72
2022/06/02 11:25:52;;;;;;;6.97;6.67;;;;;;;;;;5114011;28;20223;-72
2022/06/02 11:28:28;;;;;;;6.20;5.93;;;;;;;;;;5113339;28;20185;-72
2022/06/02 11:31:08;;;;;;;6.60;6.50;;;;;;;16.98;65.71;65966.13;5113656;28;20216;-73
2022/06/02 11:33:51;;;;;;;6.70;6.40;;;;;;;16.92;64.34;65959.44;5113414;28;20178;-73
2022/06/02 11:36:47;;;;;;;7.90;7.60;;;;;;;17.05;62.70;65979.16;5113580;28;20220;-73
2022/06/02 11:39:51;;;;;;;6.00;5.67;;;;;;;17.00;62.32;65976.22;5113674;28;20568;-74
2022/06/02 11:42:50;;;;;;;6.70;6.60;;;;;;;17.08;61.96;65982.53;5113745;28;20264;-73
2022/06/02 11:45:35;;;;;;;5.33;4.63;;;;;;;17.14;63.09;65989.19;5113762;28;20220;-73
2022/06/02 11:48:39;;;;;;;5.47;5.47;;;;;;;17.39;60.94;66011.28;5113763;28;20215;-73
2022/06/02 11:51:24;;;;;;;6.70;6.23;;;;;;;17.31;60.16;66010.78;5083994;28;20232;-73
2022/06/02 11:53:54;;;;;;;6.33;6.13;;;;;;;;;;5111421;28;20200;-72
2022/06/02 11:56:37;;;;;;;6.70;6.40;;;;;;;17.34;60.24;66010.94;5109255;28;20224;-72
2022/06/02 11:59:07;;;;;;;4.87;4.83;;;;;;;;;;5110419;28;20224;-72
2022/06/02 12:01:37;;;;;;;4.17;4.07;;;;;;;17.46;60.62;66024.31;5113395;28;20197;-72
2022/06/02 12:04:28;;;;;;;4.33;4.33;;;;;;;17.54;60.27;66032.69;5116532;28;20237;-72
2022/06/02 12:06:57;;;;;;;4.27;4.17;;;;;;;;;;5116734;28;20618;-73
2022/06/02 12:09:58;;;;;;;3.97;3.97;;;;;;;17.60;57.78;65973.75;5116624;28;20215;-73
2022/06/02 12:12:58;;;;;;;4.07;4.07;;;;;;;17.72;58.16;66052.78;5116538;28;20306;-73
2022/06/02 12:15:42;;;;;;;3.63;3.27;;;;;;;;;;5116905;28;20177;-73
2022/06/02 12:18:11;;;;;;;7.10;3.43;;;;;;;;;;5117117;28;20252;-73
2022/06/02 12:20:45;;;;;;;3.27;3.27;;;;;;;;;;5116342;28;20201;-72
2022/06/02 12:23:35;;;;;;;3.57;3.50;;;;;;;17.71;55.44;65986.03;5116308;28;20186;-74
2022/06/02 12:26:04;;;;;;;4.57;4.57;;;;;;;17.57;54.82;66028.72;5116879;28;20173;-74
2022/06/02 12:28:42;;;;;;;4.20;4.20;;;;;;;17.53;55.20;66026.88;5116543;28;20174;-73
2022/06/02 12:31:27;;;;;;;9.20;3.40;;;;;;;;;;5116271;28;20205;-73
2022/06/02 12:34:12;;;;;;;3.30;3.17;;;;;;;;;;5116173;28;20654;-74
2022/06/02 12:36:56;;;;;;;3.97;3.97;;;;;;;17.57;52.78;66031.34;5098239;28;20263;-73
2022/06/02 12:39:34;;;;;;;4.77;4.67;;;;;;;;;;5116389;28;20205;-73
2022/06/02 12:42:28;;;;;;;5.17;5.17;;;;;;;17.70;53.49;66052.59;5116069;28;20176;-73
2022/06/02 12:45:00;;;;;;;4.20;4.10;;;;;;;;;;5115802;28;20243;-73
2022/06/02 12:47:46;;;;;;;3.83;3.73;;;;;;;;;;5115355;28;20188;-73
2022/06/02 12:50:45;;;;;;;3.30;3.20;;;;;;;18.01;51.71;66073.53;5112361;28;20609;-74
2022/06/02 12:53:45;;;;;;;4.13;4.03;;;;;;;18.19;50.70;66103.53;5012140;28;20244;-73
2022/06/02 12:56:16;;;;;;;2.80;2.80;;;;;;;;;;5107642;28;20181;-72
2022/06/02 12:58:42;;;;;;;2.70;2.67;;;;;;;;;;5113535;28;20189;-73
2022/06/02 13:01:14;;;;;;;3.67;3.37;;;;;;;;;;5113287;28;20216;-74
2022/06/02 13:04:07;;;;;;;3.20;3.20;;;;;;;18.18;55.83;66097.72;5114900;28;20689;-73
2022/06/02 13:06:43;;;;;;;3.07;2.90;;;;;;;;;;5114555;28;20213;-73
2022/06/02 13:09:44;;;;;;;2.90;2.80;;;;;;;18.17;56.58;66101.31;5113088;28;20212;-72
2022/06/02 13:12:43;;;;;;;2.70;2.70;;;;;;;18.21;54.33;66098.44;5095503;28;20648;-72
2022/06/02 13:15:15;;;;;;;3.83;3.83;;;;;;;;;;5104802;28;20227;-73
2022/06/02 13:17:52;;;;;;;3.20;3.20;;;;;;;;;;5110572;28;20264;-73
2022/06/02 13:20:53;;;;;;;3.00;3.00;;;;;;;18.09;53.69;66088.25;5114087;28;20220;-74
2022/06/02 13:23:55;;;;;;;3.73;3.70;;;;;;;;;;5114047;28;20173;-73
2022/06/02 13:26:51;;;;;;;3.67;3.67;;;;;;;18.15;52.21;66099.66;5011382;28;20188;-74
2022/06/02 13:29:17;;;;;;;2.60;2.60;;;;;;;;;;5115676;28;20230;-74
2022/06/02 13:32:14;;;;;;;3.87;3.63;;;;;;;18.27;53.32;66105.16;5114941;28;20294;-74
2022/06/02 13:34:45;;;;;;;2.77;2.57;;;;;;;;;;5114905;28;20177;-73
2022/06/02 13:37:23;;;;;;;3.30;3.30;;;;;;;;;;5115106;28;20197;-73
2022/06/02 13:40:25;;;;;;;3.13;3.13;;;;;;;;;;5115099;28;20220;-73